Aérodrome :
LOGIN :

S'inscrire | Disclaimer

   EN    FR    IT 

 










Légende :    VFR   VFR Marginal   IFR   IFR Intensif   IFR Très Intensif
Visi : 
Plafond : 
>= 8 km
>= 3000ft
5 à 8 km
1000 à 3000 ft
1500m à 5 km
500 à 1000 ft
800 à 1500m
200 à 500 ft
< 800m
< 200 ft
Symboles :   Orages  Brouillard  Fortes neiges  Fortes précipitations  Vent > 20 kt
SIGMETs :   Divers  Orages  Givrage  Turbulence  Onde Orograph.  Cendres Volcan.







- Altitude de l'aérodrome : 405 ft
- Code IATA : SUJ


LRSM - Satu Mare

DERNIER METAR :
  • 181600Z 26008KT CAVOK 15/06 Q1012

METARs EXPIRÉS :
  • 181530Z 24008KT CAVOK 16/05 Q1012
  • 181500Z 24008KT CAVOK 16/05 Q1012
  • 181430Z 25009KT CAVOK 16/05 Q1012
  • 181400Z 27011KT CAVOK 16/05 Q1012
  • 181330Z 25009KT CAVOK 15/05 Q1012

TAF TAF LRSM
Valide du 18 à 15h jusqu'au 19 à 00h UTC


181400Z 1815/1824 26010KT CAVOK
BECMG 1815/1817 34010KT
TEMPO 1820/1824 5000 -SHRA SCT040CB
Pas de NOTAMs connus pour ce terrain.



MET'MAP, la Météo Aéronautique d'un coup d'oeil ! - Copyright ORBIFLY Décembre 2007 - Disclaimer

ORBIFLY MET'MAP TEAM :

Programmation & Développement : Alexandra Zaïnal
Conception & Développement : Baudouin d'Aumeries
Co-Programmation & Développement : Marc-Olivier Méhu
Soutien technique & logistique : Manuel Goepfert

Contact : metmap@orbifly.com




SOURCES & CREDITS :

   NOAA